createdAt,value
2019-03-26T00:02:20.463Z,14.25
2019-03-26T00:04:48.060Z,13.55
2019-03-26T00:07:15.612Z,16.15
2019-03-26T00:09:43.525Z,11.65
2019-03-26T00:12:11.235Z,12.68
2019-03-26T00:14:38.833Z,10.80
2019-03-26T00:17:07.233Z,14.43
2019-03-26T00:19:35.181Z,10.82
2019-03-26T00:22:03.331Z,11.48
2019-03-26T00:24:30.984Z,10.75
2019-03-26T00:26:58.546Z,10.98
2019-03-26T00:29:26.132Z,8.50
2019-03-26T00:31:53.842Z,8.85
2019-03-26T00:34:21.419Z,9.45
2019-03-26T00:36:49.226Z,10.00
2019-03-26T00:39:16.916Z,11.93
2019-03-26T00:41:44.658Z,9.68
2019-03-26T00:44:12.526Z,13.15
2019-03-26T00:46:40.116Z,11.30
2019-03-26T00:49:08.292Z,15.40
2019-03-26T00:51:36.135Z,10.23
2019-03-26T00:54:03.805Z,11.50
2019-03-26T00:56:31.804Z,8.63
2019-03-26T00:58:59.331Z,9.95
2019-03-26T01:01:27.248Z,8.28
2019-03-26T01:03:55.315Z,11.70
2019-03-26T01:06:24.110Z,12.23
2019-03-26T01:08:51.708Z,14.30
2019-03-26T01:11:19.372Z,9.28
2019-03-26T01:13:47.140Z,16.82
2019-03-26T01:16:14.745Z,13.22
2019-03-26T01:18:42.650Z,8.60
2019-03-26T01:21:10.202Z,12.70
2019-03-26T01:23:38.217Z,8.98
2019-03-26T01:26:05.799Z,16.32
2019-03-26T01:28:33.736Z,8.95
2019-03-26T01:31:01.795Z,19.62
2019-03-26T01:33:29.337Z,18.32
2019-03-26T01:35:56.930Z,13.83
2019-03-26T01:38:24.631Z,12.25
2019-03-26T01:40:52.492Z,11.45
2019-03-26T01:43:20.103Z,13.50
2019-03-26T01:45:47.714Z,10.88
2019-03-26T01:48:15.396Z,13.03
2019-03-26T01:50:43.193Z,14.93
2019-03-26T01:53:10.765Z,13.13
2019-03-26T01:55:38.364Z,13.08
2019-03-26T01:58:06.026Z,10.88
2019-03-26T02:00:34.340Z,12.20
2019-03-26T02:03:02.208Z,14.70
2019-03-26T02:05:30.472Z,10.13
2019-03-26T02:07:58.031Z,10.23
2019-03-26T02:10:25.611Z,18.65
2019-03-26T02:12:54.052Z,14.45
2019-03-26T02:15:32.000Z,14.85
2019-03-26T02:18:00.348Z,16.32
2019-03-26T02:20:29.829Z,13.25
2019-03-26T02:22:57.505Z,8.75
2019-03-26T02:25:26.370Z,12.73
2019-03-26T02:27:54.203Z,12.98
2019-03-26T02:30:21.879Z,14.03
2019-03-26T02:32:49.480Z,14.60
2019-03-26T02:35:19.068Z,12.73
2019-03-26T02:37:46.885Z,14.07
2019-03-26T02:40:15.654Z,20.23
2019-03-26T02:42:43.349Z,21.52
2019-03-26T02:45:11.555Z,14.83
2019-03-26T02:47:39.582Z,12.03
2019-03-26T02:50:07.798Z,12.10
2019-03-26T02:52:35.508Z,16.10
2019-03-26T02:55:03.784Z,14.85
2019-03-26T02:57:31.344Z,14.60
2019-03-26T02:59:58.960Z,12.58
2019-03-26T03:02:26.526Z,13.18
2019-03-26T03:04:57.428Z,18.75
2019-03-26T03:07:25.441Z,17.30
2019-03-26T03:09:53.524Z,14.85
2019-03-26T03:12:21.589Z,16.17
2019-03-26T03:14:49.643Z,11.33
2019-03-26T03:17:17.581Z,9.75
2019-03-26T03:19:45.382Z,14.95
2019-03-26T03:22:13.137Z,14.78
2019-03-26T03:24:40.862Z,14.47
2019-03-26T03:27:08.953Z,12.15
2019-03-26T03:29:36.603Z,13.00
2019-03-26T03:32:04.818Z,18.12
2019-03-26T03:34:32.848Z,10.48
2019-03-26T03:37:00.428Z,12.20
2019-03-26T03:39:27.983Z,14.75
2019-03-26T03:41:55.754Z,9.85
2019-03-26T03:44:23.817Z,9.05
2019-03-26T03:46:55.027Z,10.65
2019-03-26T03:49:24.922Z,15.53
2019-03-26T03:51:53.257Z,16.97
2019-03-26T03:54:21.753Z,13.38
2019-03-26T03:56:52.235Z,13.08
2019-03-26T03:59:21.694Z,17.00
2019-03-26T04:01:49.543Z,17.73
2019-03-26T04:04:17.145Z,13.90
2019-03-26T04:06:44.698Z,15.60
2019-03-26T04:09:12.284Z,16.05
2019-03-26T04:11:40.230Z,16.07
2019-03-26T04:14:07.761Z,15.50
2019-03-26T04:16:35.299Z,13.45
2019-03-26T04:19:03.178Z,16.62
2019-03-26T04:21:31.188Z,11.53
2019-03-26T04:23:59.215Z,15.05
2019-03-26T04:26:26.773Z,14.30
2019-03-26T04:28:54.353Z,15.72
2019-03-26T04:31:21.980Z,21.37
2019-03-26T04:33:49.548Z,10.23
2019-03-26T04:36:25.384Z,18.37
2019-03-26T04:38:46.727Z,18.90
2019-03-26T04:41:14.778Z,12.90
2019-03-26T04:43:42.444Z,13.13
2019-03-26T04:46:10.002Z,11.43
2019-03-26T04:48:38.039Z,14.63
2019-03-26T04:51:06.370Z,18.90
2019-03-26T04:53:34.261Z,13.53
2019-03-26T04:56:02.091Z,14.70
2019-03-26T04:58:29.750Z,16.75
2019-03-26T05:00:57.313Z,12.60
2019-03-26T05:03:26.062Z,11.90
2019-03-26T05:05:53.834Z,13.08
2019-03-26T05:08:21.475Z,14.80
2019-03-26T05:10:49.330Z,9.85
2019-03-26T05:13:17.059Z,9.53
2019-03-26T05:15:44.935Z,13.38
2019-03-26T05:18:12.864Z,17.02
2019-03-26T05:20:41.683Z,10.28
2019-03-26T05:23:09.587Z,10.72
2019-03-26T05:25:37.795Z,10.20
2019-03-26T05:28:05.365Z,11.93
2019-03-26T05:30:33.378Z,13.75
2019-03-26T05:33:01.114Z,9.75
2019-03-26T05:35:28.744Z,15.13
2019-03-26T05:37:56.452Z,11.35
2019-03-26T05:40:24.455Z,12.68
2019-03-26T05:42:52.292Z,11.43
2019-03-26T05:45:20.573Z,14.23
2019-03-26T05:47:48.488Z,10.18
2019-03-26T05:50:16.300Z,12.55
2019-03-26T05:52:44.133Z,11.43
2019-03-26T05:55:11.809Z,6.85
2019-03-26T05:57:39.391Z,8.90
2019-03-26T06:00:12.379Z,6.22
2019-03-26T06:02:40.370Z,8.55
2019-03-26T06:05:08.618Z,9.08
2019-03-26T06:07:36.302Z,7.45
2019-03-26T06:10:05.759Z,8.83
2019-03-26T06:12:34.640Z,8.40
2019-03-26T06:15:04.367Z,5.35
2019-03-26T06:17:32.002Z,9.43
2019-03-26T06:19:59.769Z,10.70
2019-03-26T06:22:27.757Z,4.90
2019-03-26T06:24:55.347Z,10.45
2019-03-26T06:27:22.859Z,6.33
2019-03-26T06:29:50.376Z,11.80
2019-03-26T06:32:18.145Z,11.10
2019-03-26T06:34:45.972Z,10.15
2019-03-26T06:37:18.080Z,11.38
2019-03-26T06:39:43.159Z,10.63
2019-03-26T06:42:10.763Z,6.72
2019-03-26T06:44:38.367Z,13.72
2019-03-26T06:47:06.378Z,13.78
2019-03-26T06:49:34.491Z,11.83
2019-03-26T06:52:02.087Z,9.63
2019-03-26T06:54:29.855Z,5.83
2019-03-26T06:56:58.459Z,11.38
2019-03-26T06:59:26.089Z,10.78
2019-03-26T07:01:55.189Z,12.90
2019-03-26T07:04:23.144Z,7.55
2019-03-26T07:06:50.810Z,12.82
2019-03-26T07:09:18.382Z,11.48
2019-03-26T07:11:46.074Z,9.70
2019-03-26T07:14:13.809Z,9.58
2019-03-26T07:16:41.863Z,12.78
2019-03-26T07:19:09.587Z,13.00
2019-03-26T07:21:49.154Z,13.35
2019-03-26T07:24:06.676Z,8.88
2019-03-26T07:26:34.564Z,10.53
2019-03-26T07:29:03.648Z,13.22
2019-03-26T07:31:31.628Z,10.25
2019-03-26T07:33:59.683Z,10.65
2019-03-26T07:36:27.787Z,11.05
2019-03-26T07:38:55.452Z,11.35
2019-03-26T07:41:23.216Z,11.30
2019-03-26T07:43:51.360Z,9.20
2019-03-26T07:46:19.648Z,9.80
2019-03-26T07:48:47.259Z,11.33
2019-03-26T07:51:14.891Z,9.48
2019-03-26T07:53:42.792Z,10.75
2019-03-26T07:56:10.496Z,9.55
2019-03-26T07:58:38.503Z,12.20
2019-03-26T08:01:06.070Z,9.33
2019-03-26T08:03:34.435Z,9.93
2019-03-26T08:06:02.334Z,9.48
2019-03-26T08:08:30.996Z,12.25
2019-03-26T08:10:59.265Z,15.13
2019-03-26T08:13:27.057Z,10.10
2019-03-26T08:15:54.708Z,20.97
2019-03-26T08:18:22.356Z,11.93
2019-03-26T08:20:50.215Z,11.40
2019-03-26T08:23:18.193Z,10.82
2019-03-26T08:25:45.733Z,12.43
2019-03-26T08:28:13.320Z,9.55
2019-03-26T08:30:40.855Z,10.82
2019-03-26T08:33:08.776Z,7.42
2019-03-26T08:35:36.500Z,10.85
2019-03-26T08:38:12.410Z,7.05
2019-03-26T08:40:34.073Z,9.48
2019-03-26T08:43:03.028Z,7.00
2019-03-26T08:45:30.772Z,11.60
2019-03-26T08:47:58.401Z,5.42
2019-03-26T08:50:25.968Z,10.05
2019-03-26T08:52:54.915Z,7.83
2019-03-26T08:55:22.463Z,5.90
2019-03-26T08:57:50.100Z,8.88
2019-03-26T09:00:18.053Z,10.48
2019-03-26T09:02:45.703Z,7.97
2019-03-26T09:05:14.052Z,7.03
2019-03-26T09:07:41.724Z,11.33
2019-03-26T09:10:09.972Z,5.35
2019-03-26T09:12:39.552Z,6.53
2019-03-26T09:15:08.300Z,10.68
2019-03-26T09:17:36.045Z,5.03
2019-03-26T09:20:04.661Z,6.22
2019-03-26T09:22:32.587Z,8.05
2019-03-26T09:25:00.498Z,4.17
2019-03-26T09:27:28.298Z,4.62
2019-03-26T09:29:56.395Z,5.45
2019-03-26T09:32:24.322Z,6.28
2019-03-26T09:34:51.988Z,11.15
2019-03-26T09:37:19.721Z,9.20
2019-03-26T09:39:47.395Z,5.65
2019-03-26T09:42:15.069Z,9.55
2019-03-26T09:44:43.615Z,9.33
2019-03-26T09:47:16.549Z,11.20
2019-03-26T09:49:41.076Z,5.55
2019-03-26T09:52:09.175Z,7.45
2019-03-26T09:54:37.077Z,6.45
2019-03-26T09:57:04.867Z,7.83
2019-03-26T09:59:32.707Z,9.65
2019-03-26T10:02:00.309Z,10.38
2019-03-26T10:04:28.037Z,9.30
2019-03-26T10:06:56.379Z,6.00
2019-03-26T10:09:24.590Z,10.78
2019-03-26T10:11:52.163Z,5.67
2019-03-26T10:14:19.771Z,9.30
2019-03-26T10:16:47.376Z,8.83
2019-03-26T10:19:16.993Z,11.53
2019-03-26T10:21:44.566Z,9.28
2019-03-26T10:24:12.651Z,10.53
2019-03-26T10:26:40.260Z,9.80
2019-03-26T10:29:24.042Z,9.88
2019-03-26T10:31:39.164Z,6.75
2019-03-26T10:34:07.103Z,10.10
2019-03-26T10:36:35.172Z,9.88
2019-03-26T10:39:05.401Z,8.80
2019-03-26T10:41:33.742Z,9.73
2019-03-26T10:44:01.414Z,8.18
2019-03-26T10:46:29.335Z,10.45
2019-03-26T10:48:57.232Z,11.70
2019-03-26T10:51:24.812Z,10.23
2019-03-26T10:53:52.431Z,10.90
2019-03-26T10:56:20.097Z,6.55
2019-03-26T10:58:48.114Z,6.92
2019-03-26T11:01:15.900Z,4.17
2019-03-26T11:03:43.608Z,4.97
2019-03-26T11:06:11.278Z,6.90
2019-03-26T11:08:39.106Z,3.30
2019-03-26T11:11:06.775Z,8.88
2019-03-26T11:13:34.860Z,5.87
2019-03-26T11:16:02.658Z,3.47
2019-03-26T11:18:31.028Z,5.22
2019-03-26T11:21:03.322Z,2.47
2019-03-26T11:23:29.091Z,3.00
2019-03-26T11:25:56.736Z,2.87
2019-03-26T11:28:24.580Z,4.05
2019-03-26T11:30:52.799Z,6.33
2019-03-26T11:33:20.474Z,4.50
2019-03-26T11:35:48.668Z,7.55
2019-03-26T11:38:18.467Z,7.45
2019-03-26T11:40:45.755Z,7.28
2019-03-26T11:43:13.499Z,4.05
2019-03-26T11:45:41.372Z,7.65
2019-03-26T11:48:09.400Z,9.80
2019-03-26T11:50:37.024Z,4.20
2019-03-26T11:53:04.812Z,6.58
2019-03-26T11:55:32.760Z,5.47
2019-03-26T11:58:00.463Z,4.75
2019-03-26T12:00:31.314Z,6.60
2019-03-26T12:02:58.967Z,3.42
2019-03-26T12:05:26.652Z,6.47
2019-03-26T12:07:54.687Z,6.70
2019-03-26T12:10:22.346Z,7.70
2019-03-26T12:12:49.914Z,3.98
2019-03-26T12:15:17.835Z,7.22
2019-03-26T12:17:45.379Z,6.08
2019-03-26T12:20:13.496Z,10.68
2019-03-26T12:22:41.180Z,6.40
2019-03-26T12:25:09.100Z,5.30
2019-03-26T12:27:37.026Z,3.17
2019-03-26T12:30:30.556Z,2.25
2019-03-26T12:32:58.278Z,3.65
2019-03-26T12:35:29.167Z,4.03
2019-03-26T12:37:56.980Z,3.40
2019-03-26T12:40:24.720Z,4.45
2019-03-26T12:42:52.245Z,3.17
2019-03-26T12:45:20.034Z,1.90
2019-03-26T12:47:48.011Z,3.60
2019-03-26T12:50:16.249Z,2.25
2019-03-26T12:52:43.899Z,1.75
2019-03-26T12:55:12.021Z,3.20
2019-03-26T12:57:39.520Z,1.98
2019-03-26T13:00:08.367Z,1.90
2019-03-26T13:02:36.314Z,3.85
2019-03-26T13:05:04.540Z,5.75
2019-03-26T13:07:32.150Z,2.65
2019-03-26T13:10:07.887Z,6.33
2019-03-26T13:12:29.159Z,3.40
2019-03-26T13:14:59.318Z,3.92
2019-03-26T13:17:26.308Z,5.30
2019-03-26T13:19:54.638Z,7.15
2019-03-26T13:22:23.245Z,3.60
2019-03-26T13:24:50.738Z,3.85
2019-03-26T13:27:18.289Z,2.27
2019-03-26T13:29:46.069Z,5.25
2019-03-26T13:32:13.719Z,4.40
2019-03-26T13:34:41.283Z,2.60
2019-03-26T13:37:08.862Z,6.15
2019-03-26T13:39:36.698Z,4.78
2019-03-26T13:42:04.192Z,5.70
2019-03-26T13:44:31.744Z,3.42
2019-03-26T13:46:59.339Z,4.47
2019-03-26T13:49:26.898Z,5.78
2019-03-26T13:51:54.430Z,5.33
2019-03-26T13:54:22.556Z,5.12
2019-03-26T13:56:50.046Z,3.95
2019-03-26T13:59:17.643Z,6.90
2019-03-26T14:01:45.272Z,3.30
2019-03-26T14:04:13.066Z,5.55
2019-03-26T14:06:40.635Z,3.72
2019-03-26T14:09:08.375Z,3.08
2019-03-26T14:11:36.105Z,4.00
2019-03-26T14:14:03.882Z,3.42
2019-03-26T14:16:31.560Z,2.50
2019-03-26T14:18:59.086Z,5.05
2019-03-26T14:21:26.939Z,1.95
2019-03-26T14:23:54.584Z,8.03
2019-03-26T14:26:22.417Z,5.47
2019-03-26T14:28:50.060Z,5.67
2019-03-26T14:31:17.617Z,5.22
2019-03-26T14:33:45.137Z,5.10
2019-03-26T14:36:13.059Z,4.42
2019-03-26T14:38:40.575Z,2.92
2019-03-26T14:41:08.474Z,3.58
2019-03-26T14:43:36.295Z,4.83
2019-03-26T14:46:04.745Z,7.42
2019-03-26T14:48:32.295Z,8.50
2019-03-26T14:51:00.203Z,9.10
2019-03-26T14:53:27.806Z,8.70
2019-03-26T14:55:55.402Z,7.12
2019-03-26T14:58:23.226Z,4.42
2019-03-26T15:00:51.130Z,6.80
2019-03-26T15:03:18.843Z,7.62
2019-03-26T15:05:46.753Z,4.05
2019-03-26T15:08:14.391Z,7.67
2019-03-26T15:10:42.049Z,6.45
2019-03-26T15:13:09.694Z,10.88
2019-03-26T15:15:37.384Z,8.48
2019-03-26T15:18:05.035Z,6.37
2019-03-26T15:20:33.023Z,5.25
2019-03-26T15:23:00.537Z,5.72
2019-03-26T15:25:28.230Z,4.33
2019-03-26T15:27:56.088Z,3.37
2019-03-26T15:30:23.705Z,4.12
2019-03-26T15:32:51.246Z,4.50
2019-03-26T15:35:18.777Z,3.47
2019-03-26T15:37:46.478Z,4.12
2019-03-26T15:40:14.779Z,2.55
2019-03-26T15:42:42.562Z,1.35
2019-03-26T15:45:11.954Z,3.15
2019-03-26T15:47:39.571Z,0.45
2019-03-26T15:50:08.107Z,1.75
2019-03-26T15:52:36.039Z,2.37
2019-03-26T15:55:04.138Z,1.20
2019-03-26T15:57:31.641Z,2.80
2019-03-26T15:59:59.408Z,0.88
2019-03-26T16:02:27.387Z,1.15
2019-03-26T16:04:55.158Z,1.10
2019-03-26T16:07:22.654Z,1.50
2019-03-26T16:09:50.167Z,1.80
2019-03-26T16:12:18.358Z,0.95
2019-03-26T16:14:45.894Z,2.22
2019-03-26T16:17:13.464Z,2.42
2019-03-26T16:19:41.111Z,1.27
2019-03-26T16:22:09.526Z,1.65
2019-03-26T16:24:37.173Z,2.35
2019-03-26T16:27:04.882Z,0.85
2019-03-26T16:29:32.383Z,1.80
2019-03-26T16:31:59.894Z,0.85
2019-03-26T16:34:27.492Z,1.70
2019-03-26T16:36:59.707Z,2.55
2019-03-26T16:39:24.468Z,1.75
2019-03-26T16:41:52.633Z,1.20
2019-03-26T16:44:20.254Z,1.30
2019-03-26T16:46:47.743Z,2.70
2019-03-26T16:49:15.620Z,1.82
2019-03-26T16:51:43.402Z,2.85
2019-03-26T16:54:10.978Z,3.30
2019-03-26T16:56:38.724Z,3.00
2019-03-26T16:59:07.274Z,1.62
2019-03-26T17:01:35.127Z,2.62
2019-03-26T17:04:03.056Z,2.40
2019-03-26T17:06:30.575Z,3.67
2019-03-26T17:08:58.399Z,5.65
2019-03-26T17:11:26.357Z,3.27
2019-03-26T17:13:54.477Z,4.12
2019-03-26T17:16:22.810Z,3.20
2019-03-26T17:18:50.323Z,3.17
2019-03-26T17:21:18.452Z,4.62
2019-03-26T17:23:46.342Z,5.22
2019-03-26T17:26:15.443Z,8.75
2019-03-26T17:28:43.553Z,6.12
2019-03-26T17:31:11.263Z,3.87
2019-03-26T17:33:39.218Z,4.47
2019-03-26T17:36:07.115Z,3.75
2019-03-26T17:38:34.998Z,4.40
2019-03-26T17:41:02.805Z,2.83
2019-03-26T17:43:30.596Z,3.42
2019-03-26T17:45:58.596Z,2.75
2019-03-26T17:48:26.218Z,2.75
2019-03-26T17:50:53.752Z,2.35
2019-03-26T17:53:21.265Z,4.20
2019-03-26T17:55:49.008Z,2.52
2019-03-26T17:58:17.020Z,2.45
2019-03-26T18:00:45.890Z,4.42
2019-03-26T18:03:25.761Z,3.30
2019-03-26T18:05:44.879Z,4.55
2019-03-26T18:08:13.069Z,3.52
2019-03-26T18:10:41.368Z,3.30
2019-03-26T18:13:09.694Z,2.72
2019-03-26T18:15:37.955Z,4.55
2019-03-26T18:18:05.731Z,4.78
2019-03-26T18:20:33.559Z,5.03
2019-03-26T18:23:01.495Z,7.08
2019-03-26T18:25:29.551Z,4.03
2019-03-26T18:27:57.554Z,6.25
2019-03-26T18:30:25.301Z,4.70
2019-03-26T18:32:53.265Z,6.97
2019-03-26T18:35:21.046Z,4.55
2019-03-26T18:37:48.992Z,6.78
2019-03-26T18:40:16.876Z,5.15
2019-03-26T18:42:44.652Z,3.60
2019-03-26T18:45:13.057Z,3.55
2019-03-26T18:47:41.204Z,8.70
2019-03-26T18:50:09.367Z,9.98
2019-03-26T18:52:37.005Z,8.75
2019-03-26T18:55:05.590Z,9.85
2019-03-26T18:57:34.863Z,9.93
2019-03-26T19:00:03.220Z,7.03
2019-03-26T19:02:30.984Z,9.88
2019-03-26T19:04:58.608Z,12.73
2019-03-26T19:07:26.272Z,16.55
2019-03-26T19:09:54.048Z,13.68
2019-03-26T19:12:21.648Z,9.30
2019-03-26T19:14:50.660Z,13.22
2019-03-26T19:17:18.554Z,16.97
2019-03-26T19:19:46.192Z,14.80
2019-03-26T19:22:15.105Z,13.00
2019-03-26T19:24:42.973Z,15.50
2019-03-26T19:27:11.130Z,15.03
2019-03-26T19:29:39.063Z,11.80
2019-03-26T19:32:07.239Z,11.93
2019-03-26T19:34:34.928Z,17.02
2019-03-26T19:37:02.700Z,15.25
2019-03-26T19:39:31.771Z,15.65
2019-03-26T19:41:59.900Z,19.32
2019-03-26T19:44:27.923Z,15.35
2019-03-26T19:46:55.632Z,14.38
2019-03-26T19:49:23.297Z,14.28
2019-03-26T19:51:51.068Z,17.10
2019-03-26T19:54:18.748Z,15.72
2019-03-26T19:56:47.950Z,12.13
2019-03-26T19:59:15.537Z,16.20
2019-03-26T20:01:43.136Z,15.13
2019-03-26T20:04:11.008Z,18.05
2019-03-26T20:06:38.759Z,12.30
2019-03-26T20:09:06.850Z,12.23
2019-03-26T20:11:34.659Z,12.60
2019-03-26T20:14:04.872Z,18.15
2019-03-26T20:16:41.591Z,18.27
2019-03-26T20:19:02.140Z,16.07
2019-03-26T20:21:29.797Z,17.48
2019-03-26T20:23:58.950Z,11.28
2019-03-26T20:26:26.534Z,11.73
2019-03-26T20:28:54.140Z,15.95
2019-03-26T20:31:21.926Z,11.73
2019-03-26T20:33:49.982Z,12.95
2019-03-26T20:36:19.131Z,13.68
2019-03-26T20:38:46.991Z,14.93
2019-03-26T20:41:14.955Z,14.65
2019-03-26T20:43:42.579Z,15.55
2019-03-26T20:46:10.521Z,19.10
2019-03-26T20:48:38.809Z,21.85
2019-03-26T20:51:06.634Z,16.52
2019-03-26T20:53:34.702Z,15.60
2019-03-26T20:56:02.403Z,19.30
2019-03-26T20:58:31.062Z,13.58
2019-03-26T21:00:58.719Z,19.98
2019-03-26T21:03:26.583Z,19.95
2019-03-26T21:05:54.158Z,14.68
2019-03-26T21:08:21.809Z,13.43
2019-03-26T21:10:49.687Z,15.18
2019-03-26T21:13:17.356Z,15.25
2019-03-26T21:15:56.601Z,19.25
2019-03-26T21:18:15.031Z,18.30
2019-03-26T21:20:42.694Z,17.32
2019-03-26T21:23:10.762Z,15.35
2019-03-26T21:25:38.624Z,15.95
2019-03-26T21:28:07.113Z,15.70
2019-03-26T21:30:35.334Z,12.85
2019-03-26T21:33:06.058Z,15.20
2019-03-26T21:35:35.119Z,13.68
2019-03-26T21:38:03.492Z,14.00
2019-03-26T21:40:31.588Z,15.85
2019-03-26T21:43:00.010Z,18.45
2019-03-26T21:45:34.058Z,20.52
2019-03-26T21:48:02.041Z,17.75
2019-03-26T21:50:30.096Z,13.18
2019-03-26T21:52:58.770Z,19.90
2019-03-26T21:55:26.382Z,17.15
2019-03-26T21:57:54.114Z,15.95
2019-03-26T22:00:21.654Z,13.75
2019-03-26T22:02:49.635Z,21.02
2019-03-26T22:05:17.185Z,17.98
2019-03-26T22:07:44.721Z,17.25
2019-03-26T22:10:13.115Z,17.65
2019-03-26T22:12:40.719Z,19.00
2019-03-26T22:15:09.803Z,13.45
2019-03-26T22:17:37.510Z,15.40
2019-03-26T22:20:06.494Z,11.20
2019-03-26T22:22:34.454Z,15.18
2019-03-26T22:25:02.796Z,16.67
2019-03-26T22:27:30.438Z,13.43
2019-03-26T22:29:57.986Z,13.62
2019-03-26T22:32:25.615Z,15.10
2019-03-26T22:34:53.371Z,14.78
2019-03-26T22:37:21.308Z,11.78
2019-03-26T22:39:48.838Z,12.60
2019-03-26T22:42:16.486Z,15.15
2019-03-26T22:44:44.018Z,11.53
2019-03-26T22:47:11.573Z,16.15
2019-03-26T22:49:39.119Z,14.20
2019-03-26T22:52:06.806Z,13.72
2019-03-26T22:54:34.478Z,16.62
2019-03-26T22:57:02.040Z,13.78
2019-03-26T22:59:29.868Z,12.75
2019-03-26T23:01:57.490Z,13.62
2019-03-26T23:04:25.092Z,14.47
2019-03-26T23:06:52.699Z,18.25
2019-03-26T23:09:20.312Z,15.08
2019-03-26T23:11:48.009Z,12.03
2019-03-26T23:14:16.474Z,9.03
2019-03-26T23:16:43.996Z,13.28
2019-03-26T23:19:11.882Z,9.23
2019-03-26T23:21:39.818Z,9.13
2019-03-26T23:24:07.496Z,12.28
2019-03-26T23:26:35.054Z,11.15
2019-03-26T23:29:02.728Z,14.60
2019-03-26T23:31:30.391Z,10.32
2019-03-26T23:33:58.890Z,14.35
2019-03-26T23:36:26.522Z,12.15
2019-03-26T23:38:53.994Z,12.10
2019-03-26T23:41:21.980Z,11.78
2019-03-26T23:43:50.886Z,12.45
2019-03-26T23:46:18.942Z,10.38
2019-03-26T23:48:46.474Z,13.50
2019-03-26T23:51:14.226Z,13.18
2019-03-26T23:53:42.106Z,11.88
2019-03-26T23:56:10.639Z,12.58
2019-03-26T23:58:38.485Z,11.93
